MGGTTNCM

Guest
Details From MGGT - La Aurora
To TNCM - St Maarten - Princess Juliana Intl
Flight Number -
Tags Generated
Created
Modified
Stats Distance 1,592 nm / 2,949 km
Max Altitude 0 ft / 0 m
Waypoints 5
Social Downloads 1
Likes 0
Share VATSIM

Download

Looking for another format? Having issues loading an existing format? Contact us
Advertisement - Login to hide

Notes

Generated

Route

MGGT RODBU GABYY PJM07 TNCM

ID Type Via Altitude Latitude Longitude Leg Dist Tot Dist Heading (true) Name
O MGGT APT - 0 ft / 0 m 14.57040˚ -90.53161˚ - 0 nm - -
RODBU FIX - 0 ft / 0 m 17.28694˚ -70.91278˚ 1144 nm 1144 nm 79° / 85° -
GABYY FIX - 0 ft / 0 m 17.69797˚ -66.72661˚ 241 nm 1385 nm 83° / 85° -
PJM07 FIX - 0 ft / 0 m 18.02582˚ -63.24012˚ 200 nm 1585 nm 84° / 85° -
O TNCM APT - 0 ft / 0 m 18.03937˚ -63.11961˚ 6 nm 1592 nm 83° / 83° -

Altitude Profile

Advertisement - Login to hide

Weather


0- 5 10 15 20 25 30 35+ Temperature / ° C

Clouds and Precipitation
Forecast for 2017-12-18 06:00 UTC. Updated 24 minutes ago

Ground ~20,000 ft ~40,000 ft Winds

MGGT

Details ICAO MGGT (GUA)
Name La Aurora
Region Guatemala
Timezone America/Guatemala (UTC-6.0)
Stats Elevation 4,952 ft / 1,509 m (AMSL)
Location 14.583272° -90.527473°
Runways 1
Magnetic Variation 1.069° E

METAR

MGGT 180100Z 36012KT 9999 FEW015 19/14 Q1025 Q3027

Decode

TAF

MGGT 171700Z 1718/1818 02012KT 9999 FEW018 SCT090 TX25/1720Z TN15/1812Z TEMPO 1718/1801 36016KT BKN018 BECMG 1801/1803 SCT016 TEMPO 1808/1815 BKN012 BECMG 1815/1817 02016KT SCT018

Decode

Departure Runways

ID Width Length Bearing (true) Bearing (mag) Surface Threshold Offset Overrun Length
01 196 ft / 60 m 9,841 ft / 3,000 m 17.29° 16.22° Asphalt 0 ft / 0 m 0 ft / 0 m
19 196 ft / 60 m 9,841 ft / 3,000 m 197.29° 196.22° Asphalt 722 ft / 220 m 0 ft / 0 m

TNCM

Details ICAO TNCM (SXM)
Name St Maarten - Princess Juliana Intl
Region Caribbean Netherlands, Aruba, Curaçao, Sint Maarten
Timezone Unknown (UTC+0.0)
Stats Elevation 12 ft / 4 m (AMSL)
Location 18.040889° -63.108974°
Runways 1
Magnetic Variation 14.325° W

METAR

TNCM 180100Z 07012KT 9999 -SHRA SCT020 26/22 Q1017 A3005

Decode

TAF

TAF TNCM 172323Z 1800/1824 04012KT P6SM VCSH FEW018 SCT035 TEMPO 1800/1804 VRB12G20KT -SHRA BKN018 BKN035 FM180500 07011KT P6SM -RA SCT018 SCT040 FM181430 08014KT P6SM SCT022 SCT060

Decode

Destination Runways

ID Width Length Bearing (true) Bearing (mag) Surface Threshold Offset Overrun Length
10 148 ft / 45 m 7,464 ft / 2,275 m 81.43° 95.76° Asphalt 0 ft / 0 m 151 ft / 46 m
28 148 ft / 45 m 7,464 ft / 2,275 m 261.44° 275.77° Asphalt 397 ft / 121 m 0 ft / 0 m

Popular Alternatives